Time;durP1;ratioP1;P1;durP2;ratioP2;P2;SDS_P1;SDS_P2;PMS_P1;PMS_P2;Temp;Humidity;BMP_temperature;BMP_pressure;BME280_temperature;BME280_humidity;BME280_pressure;Samples;Min_cycle;Max_cycle;Signal;HPM_P1;HPM_P2
2022/08/30 00:02:16;;;;;;;9.50;5.72;;;;;;;17.11;80.76;99422.87;1761716;81;21051;-50
2022/08/30 00:04:41;;;;;;;14.38;5.72;;;;;;;17.12;80.94;99427.23;1761575;81;20976;-51
2022/08/30 00:07:07;;;;;;;13.43;6.00;;;;;;;17.11;81.10;99426.02;1761554;81;20977;-51
2022/08/30 00:09:33;;;;;;;10.25;5.58;;;;;;;17.11;80.99;99426.86;1761609;81;20983;-49
2022/08/30 00:11:59;;;;;;;11.45;5.65;;;;;;;17.12;80.43;99429.02;1761623;81;21310;-57
2022/08/30 00:14:26;;;;;;;10.15;4.97;;;;;;;17.13;80.15;99427.57;1761625;80;20959;-55
2022/08/30 00:16:52;;;;;;;12.82;5.62;;;;;;;17.15;80.33;99434.09;1761678;81;21023;-49
2022/08/30 00:19:18;;;;;;;9.10;5.25;;;;;;;17.10;81.42;99430.50;1761593;81;21544;-57
2022/08/30 00:21:44;;;;;;;12.58;5.50;;;;;;;17.05;82.05;99428.69;1761518;81;20959;-51
2022/08/30 00:24:09;;;;;;;14.58;5.67;;;;;;;16.98;82.11;99426.99;1761523;81;20948;-45
2022/08/30 00:26:35;;;;;;;10.95;5.25;;;;;;;16.99;82.54;99427.83;1761576;81;20975;-49
2022/08/30 00:29:01;;;;;;;13.28;5.55;;;;;;;16.98;81.27;99432.31;1761549;81;20964;-55
2022/08/30 00:31:27;;;;;;;10.55;5.53;;;;;;;16.96;81.46;99431.59;1761555;81;21026;-47
2022/08/30 00:33:52;;;;;;;12.03;5.12;;;;;;;16.96;81.82;99432.08;1761533;81;20963;-51
2022/08/30 00:36:18;;;;;;;13.88;5.28;;;;;;;16.89;82.78;99425.91;1761546;81;21019;-51
2022/08/30 00:38:44;;;;;;;12.85;5.75;;;;;;;16.87;82.16;99426.52;1761531;81;21030;-44
2022/08/30 00:41:10;;;;;;;12.20;5.67;;;;;;;16.87;82.42;99429.17;1761578;80;21552;-52
2022/08/30 00:43:36;;;;;;;8.08;5.08;;;;;;;16.88;82.38;99424.70;1761515;81;21026;-48
2022/08/30 00:46:03;;;;;;;13.03;5.50;;;;;;;16.87;82.77;99422.53;1761558;81;20987;-51
2022/08/30 00:48:31;;;;;;;10.32;4.95;;;;;;;16.87;83.15;99421.20;1761540;81;20995;-56
2022/08/30 00:51:01;;;;;;;10.50;5.15;;;;;;;16.87;83.57;99423.86;1761571;81;20949;-42
2022/08/30 00:53:32;;;;;;;11.03;4.95;;;;;;;16.89;83.58;99423.25;1761236;81;21489;-51
2022/08/30 00:55:59;;;;;;;14.13;5.80;;;;;;;16.92;83.04;99423.97;1744134;81;20979;-49
2022/08/30 00:58:33;;;;;;;;;;;;;;;16.91;83.28;99426.28;1764150;81;20963;-55
2022/08/30 01:01:00;;;;;;;11.20;5.55;;;;;;;16.94;82.85;99419.41;1761538;81;20129;-44
2022/08/30 01:03:29;;;;;;;13.85;5.25;;;;;;;16.96;82.92;99423.62;1744501;81;20964;-48
2022/08/30 01:05:57;;;;;;;11.53;5.37;;;;;;;17.01;82.83;99424.59;1761608;81;20991;-50
2022/08/30 01:08:23;;;;;;;11.20;5.45;;;;;;;17.01;83.56;99421.94;1761517;81;20990;-50
2022/08/30 01:10:52;;;;;;;11.35;5.28;;;;;;;17.00;83.93;99420.23;1761535;81;20992;-55
2022/08/30 01:13:21;;;;;;;12.50;5.17;;;;;;;17.03;83.53;99427.97;1761523;81;21476;-52
2022/08/30 01:15:48;;;;;;;7.20;4.62;;;;;;;17.07;82.99;99424.09;1761476;80;20979;-56
2022/08/30 01:18:16;;;;;;;9.50;5.03;;;;;;;17.09;84.01;99427.47;1761838;81;21027;-59
2022/08/30 01:21:02;;;;;;;10.20;4.95;;;;;;;17.12;83.15;99423.70;1761496;81;20952;-50
2022/08/30 01:23:31;;;;;;;11.47;5.27;;;;;;;17.12;83.40;99424.57;1761060;81;20999;-43
2022/08/30 01:25:57;;;;;;;10.50;4.70;;;;;;;17.15;83.47;99424.30;1761494;81;21022;-42
2022/08/30 01:28:27;;;;;;;9.15;4.95;;;;;;;17.17;83.73;99421.06;1761816;81;21500;-47
2022/08/30 01:30:53;;;;;;;10.55;4.70;;;;;;;17.20;83.99;99423.45;1761507;81;20983;-47
2022/08/30 01:33:20;;;;;;;11.43;5.72;;;;;;;17.25;83.15;99418.62;1761578;81;21500;-59
2022/08/30 01:35:55;;;;;;;12.00;4.95;;;;;;;17.20;84.11;99418.63;1761641;81;21500;-56
2022/08/30 01:38:26;;;;;;;14.73;5.28;;;;;;;17.17;84.34;99415.75;1761663;81;20983;-48
2022/08/30 01:41:15;;;;;;;14.98;5.42;;;;;;;17.17;84.25;99413.09;1760786;81;21484;-50
2022/08/30 01:43:41;;;;;;;10.30;5.12;;;;;;;17.22;83.08;99413.54;1760659;81;21014;-44
2022/08/30 01:46:10;;;;;;;8.63;5.35;;;;;;;17.24;83.49;99417.41;1761749;81;20983;-45
2022/08/30 01:48:37;;;;;;;11.97;5.97;;;;;;;17.23;83.72;99411.25;1761365;80;21012;-44
2022/08/30 01:51:04;;;;;;;6.87;4.72;;;;;;;17.25;83.83;99412.47;1761655;81;21469;-48
2022/08/30 01:53:31;;;;;;;12.18;5.33;;;;;;;17.26;83.00;99418.99;1761614;81;20975;-56
2022/08/30 01:55:57;;;;;;;8.65;5.42;;;;;;;17.25;83.76;99413.30;1761584;81;21003;-48
2022/08/30 01:58:23;;;;;;;8.63;5.45;;;;;;;17.24;83.68;99422.72;1761518;80;20987;-51
2022/08/30 02:00:50;;;;;;;9.45;5.60;;;;;;;17.24;82.73;99415.58;1761458;81;20991;-45
2022/08/30 02:03:15;;;;;;;10.78;5.47;;;;;;;17.23;83.78;99420.56;1761589;81;21496;-53
2022/08/30 02:05:42;;;;;;;8.40;5.60;;;;;;;17.23;83.39;99414.41;1761453;80;21030;-54
2022/08/30 02:08:08;;;;;;;8.33;5.33;;;;;;;17.17;84.51;99416.21;1761784;81;21418;-54
2022/08/30 02:10:34;;;;;;;7.65;5.35;;;;;;;17.13;84.73;99414.28;1761457;81;20980;-54
2022/08/30 02:13:00;;;;;;;9.70;5.30;;;;;;;17.11;84.87;99416.72;1761501;81;20994;-50
2022/08/30 02:15:26;;;;;;;11.18;5.35;;;;;;;17.11;84.96;99416.23;1761453;81;20951;-50
2022/08/30 02:17:52;;;;;;;8.80;4.97;;;;;;;17.11;84.95;99416.72;1761511;81;21485;-52
2022/08/30 02:20:18;;;;;;;17.55;5.80;;;;;;;17.14;84.14;99409.84;1761440;81;20960;-51
2022/08/30 02:22:45;;;;;;;18.75;5.85;;;;;;;17.19;84.16;99412.94;1761453;81;21074;-48
2022/08/30 02:25:11;;;;;;;7.92;5.15;;;;;;;17.13;85.09;99409.47;1761745;81;20986;-54
2022/08/30 02:27:36;;;;;;;8.60;5.35;;;;;;;17.11;84.49;99410.08;1761460;81;20988;-51
2022/08/30 02:30:07;;;;;;;12.20;5.58;;;;;;;17.07;84.57;99409.48;1761433;81;20971;-51
2022/08/30 02:32:32;;;;;;;11.05;5.35;;;;;;;17.03;85.83;99416.02;1761446;81;21019;-55
2022/08/30 02:34:58;;;;;;;8.40;6.03;;;;;;;17.04;85.20;99415.03;1761404;81;20983;-49
2022/08/30 02:37:24;;;;;;;13.95;5.67;;;;;;;17.02;86.22;99414.31;1761436;81;20964;-49
2022/08/30 02:39:50;;;;;;;7.55;5.28;;;;;;;16.99;87.45;99408.77;1761507;81;20963;-52
2022/08/30 02:43:29;;;;;;;9.33;5.40;;;;;;;17.10;87.15;99419.88;1800829;79;23066;-52
2022/08/30 02:45:55;;;;;;;5.92;5.28;;;;;;;17.08;86.55;99419.13;1761771;80;21006;-51
2022/08/30 02:48:21;;;;;;;8.28;5.60;;;;;;;17.06;86.38;99421.06;1761770;81;21491;-53
2022/08/30 02:50:50;;;;;;;7.95;5.70;;;;;;;16.99;87.55;99422.05;1761873;81;21479;-51
2022/08/30 02:53:16;;;;;;;10.75;5.50;;;;;;;17.01;87.03;99419.28;1761862;80;20995;-52
2022/08/30 02:55:42;;;;;;;9.38;5.85;;;;;;;17.03;86.92;99424.82;1761764;81;20987;-47
2022/08/30 02:58:09;;;;;;;9.03;5.90;;;;;;;17.03;86.99;99422.66;1762008;81;20975;-46
2022/08/30 03:00:35;;;;;;;11.63;6.13;;;;;;;17.09;86.07;99430.13;1762039;81;21002;-50
2022/08/30 03:03:02;;;;;;;13.18;6.78;;;;;;;17.13;85.59;99423.59;1761719;81;20996;-58
2022/08/30 03:05:30;;;;;;;15.32;6.15;;;;;;;17.15;85.93;99422.97;1761980;81;20987;-50
2022/08/30 03:07:56;;;;;;;9.20;6.47;;;;;;;17.17;86.06;99419.73;1761760;80;21096;-53
2022/08/30 03:10:22;;;;;;;9.40;6.67;;;;;;;17.10;87.15;99422.98;1761830;81;20959;-47
2022/08/30 03:12:48;;;;;;;10.65;6.15;;;;;;;17.11;87.94;99428.19;1761833;81;21500;-49
2022/08/30 03:15:15;;;;;;;13.28;6.30;;;;;;;17.14;87.10;99422.63;1761740;80;21586;-57
2022/08/30 03:17:41;;;;;;;11.85;7.05;;;;;;;17.11;89.22;99426.02;1761975;81;20967;-48
2022/08/30 03:20:09;;;;;;;13.80;7.37;;;;;;;17.02;89.95;99427.59;1761867;81;21496;-55
2022/08/30 03:22:35;;;;;;;11.48;7.00;;;;;;;17.05;89.11;99427.36;1761714;81;20971;-51
2022/08/30 03:25:03;;;;;;;12.82;7.95;;;;;;;17.12;88.14;99431.67;1761765;81;21030;-43
2022/08/30 03:27:29;;;;;;;10.10;7.33;;;;;;;17.16;88.09;99428.66;1761772;81;20988;-42
2022/08/30 03:29:56;;;;;;;12.85;7.55;;;;;;;17.18;88.76;99424.06;1761811;80;21484;-52
2022/08/30 03:32:22;;;;;;;11.20;8.93;;;;;;;17.22;88.21;99426.83;1761970;81;20956;-50
2022/08/30 03:34:49;;;;;;;14.87;9.20;;;;;;;17.19;88.05;99425.77;1761767;81;20984;-54
2022/08/30 03:37:15;;;;;;;18.40;10.30;;;;;;;17.12;90.47;99427.69;1761882;81;20967;-49
2022/08/30 03:39:41;;;;;;;12.80;9.70;;;;;;;17.16;90.09;99423.84;1761869;81;20995;-47
2022/08/30 03:42:07;;;;;;;14.63;9.05;;;;;;;17.17;89.74;99414.88;1757284;81;21542;-43
2022/08/30 03:44:33;;;;;;;17.23;9.80;;;;;;;17.18;89.21;99418.75;1748718;81;20992;-51
2022/08/30 03:46:59;;;;;;;12.78;10.15;;;;;;;17.22;88.49;99420.67;1748726;81;20976;-48
2022/08/30 03:49:25;;;;;;;12.23;9.08;;;;;;;17.15;90.11;99419.48;1748638;81;21031;-54
2022/08/30 03:51:51;;;;;;;14.93;9.15;;;;;;;17.20;90.08;99417.30;1748665;81;21027;-51
2022/08/30 03:54:17;;;;;;;13.25;8.38;;;;;;;17.21;89.40;99421.17;1748252;81;20983;-47
2022/08/30 03:56:43;;;;;;;10.43;7.90;;;;;;;17.28;89.01;99426.81;1748107;82;21027;-51
2022/08/30 03:59:09;;;;;;;16.05;7.83;;;;;;;17.32;88.21;99428.73;1748052;81;21034;-46
2022/08/30 04:01:34;;;;;;;10.25;6.90;;;;;;;17.31;90.20;99430.56;1748072;81;21039;-51
2022/08/30 04:04:01;;;;;;;10.05;6.28;;;;;;;17.34;89.76;99430.81;1748179;82;21031;-56
2022/08/30 04:06:27;;;;;;;6.87;5.90;;;;;;;17.37;88.59;99441.17;1748194;81;21387;-48
2022/08/30 04:08:53;;;;;;;10.35;5.80;;;;;;;17.35;88.54;99436.47;1748408;81;20995;-52
2022/08/30 04:11:20;;;;;;;8.08;5.40;;;;;;;17.37;88.71;99433.20;1748172;81;21456;-48
2022/08/30 04:13:48;;;;;;;10.35;6.60;;;;;;;17.39;87.77;99440.56;1748056;82;21031;-48
2022/08/30 04:16:14;;;;;;;8.98;7.03;;;;;;;17.44;88.08;99433.93;1748098;81;20964;-47
2022/08/30 04:18:40;;;;;;;11.08;7.40;;;;;;;17.41;88.54;99442.14;1748137;82;21505;-55
2022/08/30 04:21:06;;;;;;;14.07;8.08;;;;;;;17.44;88.67;99447.69;1748053;81;20968;-44
2022/08/30 04:23:32;;;;;;;11.40;8.55;;;;;;;17.52;88.17;99450.58;1748104;82;20964;-57
2022/08/30 04:25:58;;;;;;;10.40;7.42;;;;;;;17.54;88.01;99447.80;1748096;82;20984;-50
2022/08/30 04:28:24;;;;;;;10.60;7.50;;;;;;;17.53;88.18;99457.56;1748050;81;20992;-52
2022/08/30 04:30:50;;;;;;;11.63;6.92;;;;;;;17.57;88.60;99460.36;1748093;82;21031;-55
2022/08/30 04:33:16;;;;;;;8.78;6.60;;;;;;;17.60;88.27;99457.42;1748143;81;21028;-48
2022/08/30 04:35:46;;;;;;;8.60;6.70;;;;;;;17.63;87.97;99459.84;1748140;82;21157;-44
2022/08/30 04:38:12;;;;;;;12.65;6.92;;;;;;;17.69;87.68;99466.97;1748097;81;21464;-48
2022/08/30 04:40:42;;;;;;;11.50;7.28;;;;;;;17.68;88.31;99466.59;1748143;81;21468;-48
2022/08/30 04:43:08;;;;;;;9.98;6.80;;;;;;;17.74;87.56;99467.44;1747534;80;21013;-54
2022/08/30 04:45:37;;;;;;;11.15;6.90;;;;;;;17.76;87.56;99471.65;1748170;81;21007;-54
2022/08/30 04:48:02;;;;;;;10.15;6.28;;;;;;;17.78;87.17;99469.70;1748147;81;21457;-50
2022/08/30 04:50:28;;;;;;;7.50;5.87;;;;;;;17.75;86.50;99473.94;1748089;81;21108;-56
2022/08/30 04:52:54;;;;;;;8.05;5.83;;;;;;;17.67;87.06;99475.06;1748201;81;20995;-56
2022/08/30 04:55:20;;;;;;;9.25;5.17;;;;;;;17.69;86.96;99476.27;1748090;81;21019;-51
2022/08/30 04:57:47;;;;;;;6.80;5.13;;;;;;;17.70;86.29;99477.95;1748317;81;21425;-53
2022/08/30 05:00:13;;;;;;;9.10;5.15;;;;;;;17.68;85.93;99481.22;1748171;81;21043;-45
2022/08/30 05:02:40;;;;;;;16.03;5.33;;;;;;;17.70;86.13;99479.27;1748262;81;21031;-50
2022/08/30 05:07:52;;;;;;;6.17;4.92;;;;;;;17.70;85.89;99481.93;1748025;81;21521;-52
2022/08/30 05:10:18;;;;;;;6.12;5.00;;;;;;;17.72;85.90;99479.98;1748071;81;21035;-44
2022/08/30 05:12:44;;;;;;;6.08;4.87;;;;;;;17.70;86.01;99476.61;1748136;81;20991;-45
2022/08/30 05:15:11;;;;;;;5.95;4.30;;;;;;;17.75;85.62;99485.06;1748042;81;21093;-51
2022/08/30 05:17:39;;;;;;;11.05;5.17;;;;;;;17.76;85.68;99486.27;1748039;81;21000;-47
2022/08/30 05:20:08;;;;;;;5.10;4.60;;;;;;;17.79;85.12;99490.48;1748055;81;20992;-51
2022/08/30 05:22:39;;;;;;;6.80;4.80;;;;;;;17.79;86.08;99490.48;1747974;81;21474;-43
2022/08/30 05:25:06;;;;;;;7.30;4.40;;;;;;;17.86;85.52;99486.88;1748018;81;20991;-54
2022/08/30 05:27:33;;;;;;;9.68;4.50;;;;;;;17.83;85.72;99491.95;1748113;81;21453;-54
2022/08/30 05:29:59;;;;;;;5.30;4.13;;;;;;;17.83;85.26;99496.77;1748290;81;20987;-50
2022/08/30 05:32:25;;;;;;;9.90;3.90;;;;;;;17.88;85.13;99508.38;1748332;81;20980;-52
2022/08/30 05:34:50;;;;;;;6.00;3.85;;;;;;;17.87;84.62;99505.87;1748039;81;21485;-52
2022/08/30 05:37:16;;;;;;;7.30;3.47;;;;;;;17.81;84.85;99513.84;1748009;81;21062;-51
2022/08/30 05:39:43;;;;;;;4.67;3.30;;;;;;;17.79;85.62;99515.30;1748034;81;20992;-41
2022/08/30 05:42:08;;;;;;;3.23;2.70;;;;;;;17.61;85.01;99507.48;1748161;80;21031;-51
2022/08/30 05:44:34;;;;;;;4.15;2.35;;;;;;;17.61;85.01;99507.48;1748096;81;20960;-52
2022/08/30 05:47:00;;;;;;;2.58;2.20;;;;;;;17.72;84.52;99519.88;1748026;81;20983;-53
2022/08/30 05:49:26;;;;;;;6.45;2.62;;;;;;;17.69;84.08;99518.33;1748032;81;20952;-50
2022/08/30 05:51:51;;;;;;;3.42;2.50;;;;;;;17.57;84.35;99521.98;1747988;81;20999;-46
2022/08/30 05:54:17;;;;;;;6.53;2.52;;;;;;;17.67;83.91;99512.30;1748001;82;21000;-43
2022/08/30 05:56:46;;;;;;;5.35;2.60;;;;;;;17.73;83.65;99516.27;1748008;81;21002;-52
2022/08/30 05:59:13;;;;;;;6.30;2.80;;;;;;;17.80;83.18;99513.47;1747996;82;21430;-49
2022/08/30 06:01:43;;;;;;;2.75;2.47;;;;;;;17.81;83.04;99516.01;1748194;81;20992;-49
2022/08/30 06:04:11;;;;;;;3.58;2.22;;;;;;;17.80;82.88;99510.81;1748044;81;20987;-51
2022/08/30 06:06:39;;;;;;;3.60;2.50;;;;;;;17.87;82.85;99510.70;1748002;81;21472;-57
2022/08/30 06:09:08;;;;;;;5.45;2.77;;;;;;;17.80;83.07;99508.98;1748229;81;21004;-49
2022/08/30 06:11:34;;;;;;;6.70;2.80;;;;;;;17.88;82.86;99511.53;1747618;81;21011;-57
2022/08/30 06:14:01;;;;;;;2.60;2.40;;;;;;;17.84;82.80;99512.23;1758645;80;20948;-48
2022/08/30 06:16:28;;;;;;;4.08;2.87;;;;;;;17.84;82.82;99515.77;1763665;81;20987;-60
2022/08/30 06:18:56;;;;;;;3.60;2.40;;;;;;;17.84;83.10;99514.44;1763645;81;21018;-52
2022/08/30 06:21:27;;;;;;;9.58;3.15;;;;;;;17.87;83.11;99509.37;1762443;81;21050;-55
2022/08/30 06:23:54;;;;;;;5.80;2.75;;;;;;;17.96;82.72;99512.59;1762994;81;21022;-53
2022/08/30 06:26:21;;;;;;;3.00;2.62;;;;;;;18.05;82.43;99507.50;1763143;81;20995;-47
2022/08/30 06:28:48;;;;;;;;;;;;;;;18.10;81.96;99503.95;1766150;80;21025;-44
2022/08/30 06:33:55;;;;;;;6.78;2.60;;;;;;;18.20;81.30;99512.37;1800810;79;22938;-48
2022/08/30 06:36:24;;;;;;;5.87;2.10;;;;;;;18.30;81.41;99507.14;1761762;81;21030;-48
2022/08/30 06:38:52;;;;;;;3.47;1.85;;;;;;;18.34;80.71;99511.22;1761857;81;21011;-56
2022/08/30 06:41:22;;;;;;;3.52;2.40;;;;;;;18.35;80.34;99519.55;1761798;81;21010;-51
2022/08/30 06:43:49;;;;;;;2.70;1.90;;;;;;;18.34;80.19;99517.88;1760825;80;21074;-57
2022/08/30 06:46:26;;;;;;;5.07;2.07;;;;;;;18.44;80.20;99525.09;1761430;80;21038;-54
2022/08/30 06:48:53;;;;;;;2.80;1.45;;;;;;;18.41;79.44;99525.70;1761093;81;21034;-49
2022/08/30 06:51:22;;;;;;;5.35;1.40;;;;;;;18.42;79.01;99528.71;1736658;81;21015;-55
2022/08/30 06:53:49;;;;;;;2.55;1.62;;;;;;;18.46;78.73;99528.46;1757696;81;21055;-51
2022/08/30 06:56:17;;;;;;;4.70;1.47;;;;;;;18.38;78.15;99533.11;1758172;81;21539;-49
2022/08/30 06:58:44;;;;;;;3.80;1.42;;;;;;;18.41;78.69;99543.02;1758494;81;20983;-53
2022/08/30 07:01:17;;;;;;;3.83;1.35;;;;;;;18.27;78.70;99543.33;1757619;81;21492;-49
2022/08/30 07:03:43;;;;;;;3.50;1.65;;;;;;;18.33;78.82;99540.63;1759122;80;21011;-46
2022/08/30 07:06:09;;;;;;;2.62;1.25;;;;;;;18.35;78.76;99540.02;1760232;81;21035;-57
2022/08/30 07:08:36;;;;;;;1.87;1.67;;;;;;;18.32;78.45;99539.80;1761444;81;21030;-51
2022/08/30 07:11:04;;;;;;;2.75;1.40;;;;;;;18.33;78.18;99549.45;1761625;81;21531;-56
2022/08/30 07:13:31;;;;;;;3.90;1.80;;;;;;;18.16;78.28;99550.03;1761759;81;20982;-48
2022/08/30 07:15:57;;;;;;;3.83;1.50;;;;;;;18.22;78.19;99560.16;1760777;81;21018;-44
2022/08/30 07:21:11;;;;;;;3.67;1.67;;;;;;;18.14;78.54;99562.62;1760779;80;21535;-52
2022/08/30 07:23:37;;;;;;;1.92;1.32;;;;;;;18.09;78.91;99567.48;1761301;81;20952;-49
2022/08/30 07:26:06;;;;;;;3.30;1.90;;;;;;;18.04;78.97;99566.51;1761711;81;21018;-57
2022/08/30 07:28:33;;;;;;;3.27;2.15;;;;;;;18.12;79.09;99563.20;1761061;80;21070;-53
2022/08/30 07:30:59;;;;;;;3.87;1.50;;;;;;;18.22;78.33;99565.48;1740948;81;21073;-43
2022/08/30 07:33:25;;;;;;;2.02;1.40;;;;;;;18.25;78.46;99568.39;1760408;81;21602;-47
2022/08/30 07:35:51;;;;;;;6.50;1.82;;;;;;;18.26;78.58;99572.23;1761794;81;21504;-41
2022/08/30 07:38:17;;;;;;;1.92;1.35;;;;;;;18.37;77.90;99574.87;1762078;81;20971;-50
2022/08/30 07:40:43;;;;;;;5.83;1.20;;;;;;;18.46;77.09;99573.73;1762004;81;21472;-49
2022/08/30 07:43:09;;;;;;;2.92;1.40;;;;;;;18.56;77.35;99566.67;1761506;81;21443;-44
2022/08/30 07:45:37;;;;;;;2.35;1.10;;;;;;;18.74;77.02;99575.77;1761390;81;20995;-54
2022/08/30 07:48:06;;;;;;;2.65;1.20;;;;;;;18.84;76.07;99579.84;1760354;81;21082;-46
2022/08/30 07:50:32;;;;;;;7.33;3.22;;;;;;;18.82;75.23;99586.29;1760102;81;21530;-52
2022/08/30 07:52:58;;;;;;;2.58;1.30;;;;;;;18.95;75.91;99582.92;1761561;81;20983;-44
2022/08/30 07:55:24;;;;;;;5.40;1.52;;;;;;;19.01;75.42;99581.08;1760868;81;20980;-50
2022/08/30 07:57:50;;;;;;;4.90;1.80;;;;;;;19.13;75.41;99585.33;1760911;81;20977;-44
2022/08/30 08:00:16;;;;;;;5.00;1.98;;;;;;;19.10;74.49;99591.42;1760827;81;20991;-54
2022/08/30 08:02:42;;;;;;;2.25;1.55;;;;;;;19.14;74.31;99583.04;1760784;81;21023;-50
2022/08/30 08:05:09;;;;;;;2.83;1.67;;;;;;;19.25;73.77;99589.27;1760457;81;21023;-47
2022/08/30 08:07:35;;;;;;;35.58;26.50;;;;;;;19.32;73.89;99589.94;1761344;81;21035;-49
2022/08/30 08:10:01;;;;;;;6.45;3.45;;;;;;;19.34;73.74;99589.80;1760027;81;21027;-56
2022/08/30 08:12:27;;;;;;;3.40;2.98;;;;;;;19.52;74.32;99594.86;1760740;81;21003;-56
2022/08/30 08:14:53;;;;;;;8.23;1.77;;;;;;;19.66;73.37;99597.63;1761030;81;20999;-51
2022/08/30 08:17:19;;;;;;;3.92;1.50;;;;;;;19.69;71.98;99593.36;1761073;81;21047;-58
2022/08/30 08:19:45;;;;;;;2.85;1.50;;;;;;;19.74;72.42;99600.50;1761330;81;21059;-47
2022/08/30 08:22:11;;;;;;;3.50;1.45;;;;;;;19.81;72.24;99598.61;1761207;81;21043;-53
2022/08/30 08:24:36;;;;;;;20.97;2.17;;;;;;;19.77;70.58;99596.70;1760551;81;21606;-47
2022/08/30 08:27:02;;;;;;;8.65;1.80;;;;;;;19.92;71.55;99590.02;1760368;81;21563;-38
2022/08/30 08:29:28;;;;;;;20.32;2.22;;;;;;;20.18;71.96;99588.16;1760211;81;21131;-38
2022/08/30 08:31:55;;;;;;;16.17;2.30;;;;;;;20.43;71.53;99589.43;1761259;81;21063;-37
2022/08/30 08:34:22;;;;;;;;;;;;;;;20.51;70.71;99595.39;1750875;81;21100;-38
2022/08/30 08:36:51;;;;;;;1.87;1.10;;;;;;;20.59;68.58;99593.34;1748129;81;20141;-38
2022/08/30 08:39:17;;;;;;;2.10;1.30;;;;;;;20.69;69.85;99590.22;1747921;81;21430;-37
2022/08/30 08:42:12;;;;;;;1.77;1.10;;;;;;;20.75;69.07;99588.80;1747874;82;20983;-37
2022/08/30 08:44:50;;;;;;;1.60;1.00;;;;;;;20.83;68.49;99599.13;1720529;81;20980;-37
2022/08/30 08:47:38;;;;;;;16.50;6.65;;;;;;;20.94;68.07;99602.14;1743607;81;21039;-36
2022/08/30 08:50:12;;;;;;;3.92;1.87;;;;;;;20.95;67.25;99600.30;1741203;82;20960;-38
2022/08/30 08:55:44;;;;;;;6.85;1.32;;;;;;;21.09;67.23;99605.19;1736332;82;21535;-37
2022/08/30 08:58:16;;;;;;;3.33;1.30;;;;;;;21.16;66.89;99614.83;1745030;81;21545;-36
2022/08/30 09:00:41;;;;;;;2.70;1.50;;;;;;;21.21;65.90;99615.20;1746240;82;21604;-38
2022/08/30 09:03:11;;;;;;;2.10;1.17;;;;;;;21.25;65.93;99610.78;1747393;81;21007;-36
2022/08/30 09:05:39;;;;;;;2.92;1.20;;;;;;;21.16;65.72;99610.31;1747152;81;21031;-37
2022/08/30 09:08:09;;;;;;;3.08;1.32;;;;;;;21.18;64.90;99613.68;1747381;81;21039;-37
2022/08/30 09:10:37;;;;;;;1.30;1.20;;;;;;;21.09;65.21;99611.38;1737066;82;20999;-36
2022/08/30 09:13:03;;;;;;;3.65;2.02;;;;;;;21.12;64.84;99606.25;1743146;81;20993;-38
2022/08/30 09:15:32;;;;;;;1.80;1.40;;;;;;;21.11;64.87;99611.23;1741237;82;20991;-36
2022/08/30 09:18:03;;;;;;;3.85;1.60;;;;;;;21.02;64.86;99606.25;1744811;82;21504;-36
2022/08/30 09:20:33;;;;;;;1.60;1.50;;;;;;;20.97;65.08;99604.50;1747147;81;20952;-37
2022/08/30 09:23:17;;;;;;;6.42;1.75;;;;;;;20.92;65.08;99609.46;1746982;81;21394;-37
2022/08/30 09:25:57;;;;;;;1.32;1.22;;;;;;;20.78;65.20;99599.22;1746604;82;21465;-37
2022/08/30 09:28:27;;;;;;;3.98;1.35;;;;;;;20.74;65.46;99601.33;1746323;81;20956;-37
2022/08/30 09:31:23;;;;;;;6.03;1.77;;;;;;;20.72;65.86;99613.99;1746644;82;21016;-37
2022/08/30 09:34:05;;;;;;;7.25;1.55;;;;;;;20.69;65.80;99619.11;1751558;81;21568;-36
2022/08/30 09:36:52;;;;;;;4.40;1.80;;;;;;;20.61;65.61;99618.13;1754765;82;21026;-36
2022/08/30 09:39:31;;;;;;;6.62;1.52;;;;;;;20.51;65.69;99619.44;1754834;81;21475;-36
2022/08/30 09:42:24;;;;;;;4.22;1.95;;;;;;;20.53;66.12;99616.97;1758202;81;21031;-36
2022/08/30 09:44:52;;;;;;;4.50;1.77;;;;;;;20.57;66.11;99616.19;1760199;81;21011;-36
2022/08/30 09:47:24;;;;;;;5.25;1.60;;;;;;;20.64;66.12;99617.84;1760547;81;21484;-37
2022/08/30 09:50:04;;;;;;;2.20;1.22;;;;;;;20.63;65.85;99621.02;1760109;80;20987;-37
2022/08/30 09:52:42;;;;;;;3.33;1.40;;;;;;;20.64;65.40;99624.03;1760436;81;20988;-36
2022/08/30 09:55:28;;;;;;;1.98;1.35;;;;;;;20.74;65.43;99623.17;1754571;81;21038;-36
2022/08/30 09:58:00;;;;;;;1.87;1.30;;;;;;;20.91;65.59;99618.45;1760897;80;21523;-36
2022/08/30 10:00:31;;;;;;;2.25;1.70;;;;;;;21.16;64.84;99618.34;1759937;81;21023;-37
2022/08/30 10:03:11;;;;;;;3.62;1.40;;;;;;;21.24;64.45;99618.94;1760604;81;20987;-36
2022/08/30 10:05:54;;;;;;;4.83;1.27;;;;;;;21.15;64.08;99620.64;1755202;81;21469;-36
2022/08/30 10:08:51;;;;;;;3.60;1.62;;;;;;;21.18;64.00;99624.38;1755214;81;20983;-36
2022/08/30 10:11:27;;;;;;;2.08;1.50;;;;;;;21.15;63.51;99619.81;1754894;80;20990;-37
2022/08/30 10:14:32;;;;;;;3.52;1.50;;;;;;;21.04;63.74;99620.32;1755150;81;21006;-37
2022/08/30 10:17:06;;;;;;;3.10;1.20;;;;;;;21.04;63.87;99618.98;1755588;81;21026;-36
2022/08/30 10:19:53;;;;;;;2.83;1.10;;;;;;;21.07;63.97;99619.20;1755062;81;21480;-37
2022/08/30 10:22:41;;;;;;;2.35;1.47;;;;;;;21.21;63.57;99621.42;1754502;82;21527;-37
2022/08/30 10:25:18;;;;;;;4.85;1.20;;;;;;;21.19;62.89;99618.52;1754623;80;20987;-37
2022/08/30 10:28:07;;;;;;;1.05;0.85;;;;;;;21.09;62.64;99621.23;1755396;81;21539;-36
2022/08/30 10:30:38;;;;;;;3.08;1.30;;;;;;;21.05;62.46;99619.34;1754457;82;21014;-37
2022/08/30 10:33:12;;;;;;;2.72;0.90;;;;;;;21.19;62.65;99622.53;1752111;81;21048;-37
2022/08/30 10:35:43;;;;;;;4.35;1.40;;;;;;;21.16;62.32;99619.67;1740799;82;21044;-37
2022/08/30 10:38:21;;;;;;;0.88;0.85;;;;;;;21.18;62.43;99616.36;1741094;82;21613;-38
2022/08/30 10:41:13;;;;;;;2.17;1.10;;;;;;;21.28;62.29;99625.67;1741411;82;21046;-37
2022/08/30 10:43:53;;;;;;;2.25;0.80;;;;;;;21.35;61.95;99628.13;1741041;82;20972;-37
2022/08/30 10:46:36;;;;;;;4.53;1.20;;;;;;;21.35;61.94;99621.44;1737321;82;20987;-37
2022/08/30 10:49:08;;;;;;;2.47;0.90;;;;;;;21.33;62.03;99622.08;1747443;81;21004;-38
2022/08/30 10:52:03;;;;;;;2.70;0.60;;;;;;;21.44;62.32;99626.41;1743346;81;20975;-38
2022/08/30 10:55:02;;;;;;;3.25;1.02;;;;;;;21.50;61.71;99624.50;1744120;82;20968;-37
2022/08/30 10:57:27;;;;;;;1.65;0.60;;;;;;;21.35;61.58;99621.44;1747685;81;20991;-37
2022/08/30 11:00:02;;;;;;;2.12;0.90;;;;;;;21.06;60.99;99617.00;1747942;82;21028;-37
2022/08/30 11:02:54;;;;;;;1.10;0.72;;;;;;;21.17;61.78;99615.99;1747513;81;20991;-36
2022/08/30 11:05:54;;;;;;;1.77;0.95;;;;;;;21.30;62.12;99612.99;1747742;81;21519;-37
2022/08/30 11:08:43;;;;;;;2.55;0.72;;;;;;;21.44;61.88;99620.55;1747596;82;21469;-38
2022/08/30 11:11:45;;;;;;;1.80;0.60;;;;;;;21.53;61.08;99622.88;1747669;82;20960;-37
2022/08/30 11:14:15;;;;;;;1.47;0.60;;;;;;;21.58;60.66;99618.44;1747629;82;20995;-37
2022/08/30 11:16:45;;;;;;;1.70;0.60;;;;;;;21.62;60.48;99615.80;1747589;81;21470;-38
2022/08/30 11:19:20;;;;;;;4.50;0.70;;;;;;;21.62;60.92;99618.48;1747832;81;21003;-37
2022/08/30 11:21:47;;;;;;;2.15;0.70;;;;;;;21.63;60.44;99618.34;1747353;81;21035;-37
2022/08/30 11:24:21;;;;;;;;;;;;;;;21.70;60.60;99614.55;1750399;81;21039;-37
2022/08/30 11:26:51;;;;;;;1.82;0.70;;;;;;;21.72;60.66;99613.94;1747668;82;20105;-36
2022/08/30 11:29:34;;;;;;;4.40;0.50;;;;;;;21.77;59.77;99615.64;1747780;81;21560;-36
2022/08/30 11:32:17;;;;;;;2.02;0.95;;;;;;;21.67;59.45;99621.56;1744123;81;21008;-37
2022/08/30 11:34:51;;;;;;;1.45;0.55;;;;;;;21.49;59.10;99618.82;1749205;81;21046;-36
2022/08/30 11:37:41;;;;;;;2.58;0.60;;;;;;;;;;1753185;81;21011;-37
2022/08/30 11:40:25;;;;;;;0.72;0.40;;;;;;;21.36;59.34;99623.63;1753081;82;20991;-34
2022/08/30 11:42:54;;;;;;;6.33;0.90;;;;;;;21.27;59.76;99615.98;1753319;82;21460;-34
2022/08/30 11:45:34;;;;;;;1.57;0.53;;;;;;;21.19;59.99;99615.38;1753451;82;21034;-36
2022/08/30 11:48:09;;;;;;;0.95;0.70;;;;;;;21.09;60.56;99619.39;1752349;82;21502;-38
2022/08/30 11:50:43;;;;;;;1.80;0.42;;;;;;;21.13;60.57;99616.45;1726149;82;20999;-37
2022/08/30 11:53:30;;;;;;;2.22;0.40;;;;;;;21.22;60.49;99615.57;1751644;82;20980;-36
2022/08/30 11:56:22;;;;;;;1.30;0.50;;;;;;;21.05;59.86;99618.51;1744051;82;21026;-36
2022/08/30 11:59:00;;;;;;;1.10;0.45;;;;;;;21.05;60.10;99619.84;1752429;80;20999;-36